Time;durP1;ratioP1;P1;durP2;ratioP2;P2;SDS_P1;SDS_P2;PMS_P1;PMS_P2;Temp;Humidity;BMP_temperature;BMP_pressure;BME280_temperature;BME280_humidity;BME280_pressure;Samples;Min_cycle;Max_cycle;Signal;HPM_P1;HPM_P2
2023/06/01 00:00:14;;;;;;;4.03;1.40;;;;;;;14.12;51.76;100298.59;10529792;27;20988;-59
2023/06/01 00:05:18;;;;;;;2.00;1.20;;;;;;;14.02;51.75;100298.38;10543476;27;20503;-59
2023/06/01 00:10:20;;;;;;;3.00;1.30;;;;;;;13.98;52.10;100296.91;10545390;27;20067;-58
2023/06/01 00:15:22;;;;;;;4.00;1.73;;;;;;;13.95;52.32;100293.63;10544569;28;20484;-58
2023/06/01 00:20:24;;;;;;;3.08;1.10;;;;;;;13.86;52.61;100291.63;10547878;27;20138;-59
2023/06/01 00:25:26;;;;;;;2.10;1.20;;;;;;;13.72;52.76;100295.16;10546734;28;20047;-59
2023/06/01 00:30:28;;;;;;;2.60;1.25;;;;;;;13.67;52.88;100286.78;10551168;28;20609;-59
2023/06/01 00:35:30;;;;;;;2.00;1.30;;;;;;;13.61;53.15;100282.78;10546045;28;20073;-61
2023/06/01 00:40:33;;;;;;;4.05;1.20;;;;;;;13.57;53.27;100294.44;10550598;28;20052;-59
2023/06/01 00:45:37;;;;;;;2.30;1.20;;;;;;;13.54;53.27;100292.00;10530965;28;20074;-59
2023/06/01 00:50:39;;;;;;;2.20;1.33;;;;;;;13.33;53.72;100293.34;10519240;28;20685;-60
2023/06/01 00:55:41;;;;;;;2.38;1.30;;;;;;;13.27;53.74;100287.69;10528322;28;20047;-59
2023/06/01 01:00:43;;;;;;;1.75;1.20;;;;;;;13.17;54.15;100294.47;10515897;28;20064;-58
2023/06/01 01:05:45;;;;;;;2.92;1.60;;;;;;;13.08;54.36;100292.44;10546767;28;20070;-59
2023/06/01 01:11:04;;;;;;;3.70;1.40;;;;;;;12.92;55.73;100303.91;10550025;28;20055;-59
2023/06/01 01:16:27;;;;;;;3.35;1.40;;;;;;;13.03;55.71;100299.78;10543655;28;20043;-59
2023/06/01 01:21:38;;;;;;;2.25;1.35;;;;;;;12.95;55.44;100295.84;10530804;28;20482;-59
2023/06/01 01:26:41;;;;;;;2.00;1.40;;;;;;;12.98;54.58;100295.63;10528618;28;20643;-58
2023/06/01 01:31:45;;;;;;;4.60;1.40;;;;;;;12.93;54.83;100287.22;10512752;28;20055;-59
2023/06/01 01:36:47;;;;;;;1.45;1.20;;;;;;;12.82;54.71;100286.22;10545922;28;20044;-58
2023/06/01 01:41:49;;;;;;;1.58;1.15;;;;;;;12.80;54.98;100283.69;10549238;28;20054;-59
2023/06/01 01:47:09;;;;;;;3.60;1.60;;;;;;;12.83;55.25;100278.25;10544941;28;20043;-59
2023/06/01 01:52:17;;;;;;;1.92;1.20;;;;;;;12.72;55.27;100285.94;10516076;27;20050;-59
2023/06/01 01:57:21;;;;;;;2.00;1.25;;;;;;;12.64;55.39;100280.34;10545148;28;20105;-58
2023/06/01 02:02:23;;;;;;;2.30;1.20;;;;;;;12.57;55.52;100283.44;10564213;28;20058;-58
2023/06/01 02:07:25;;;;;;;3.13;1.52;;;;;;;12.39;55.86;100285.44;10535412;28;20040;-58
2023/06/01 02:12:27;;;;;;;2.35;1.30;;;;;;;12.38;55.82;100275.88;10551156;28;20054;-58
2023/06/01 02:17:29;;;;;;;1.88;1.30;;;;;;;11.99;55.83;100278.25;10537062;28;20138;-58
2023/06/01 02:22:31;;;;;;;2.05;1.33;;;;;;;11.80;56.55;100282.91;10559807;28;20050;-60
2023/06/01 02:27:33;;;;;;;3.08;1.70;;;;;;;11.92;56.41;100287.44;10543648;27;20138;-58
2023/06/01 02:32:37;;;;;;;3.47;1.52;;;;;;;11.92;56.63;100284.81;10558380;28;20436;-58
2023/06/01 02:37:39;;;;;;;2.70;1.48;;;;;;;11.89;56.77;100282.34;10542678;28;20039;-59
2023/06/01 02:42:41;;;;;;;1.85;1.35;;;;;;;11.89;56.64;100277.13;10525171;27;20497;-59
2023/06/01 02:47:44;;;;;;;2.28;1.25;;;;;;;11.90;56.60;100279.66;10542441;28;20058;-59
2023/06/01 02:52:47;;;;;;;3.20;1.48;;;;;;;11.91;56.50;100276.09;10523064;28;20057;-59
2023/06/01 02:57:49;;;;;;;2.00;1.13;;;;;;;11.82;56.71;100288.91;10528780;27;20078;-59
2023/06/01 03:02:52;;;;;;;2.42;1.30;;;;;;;11.75;57.05;100283.19;10470682;28;20813;-58
2023/06/01 03:07:55;;;;;;;2.38;1.40;;;;;;;11.57;57.09;100286.88;10451926;28;20055;-59
2023/06/01 03:13:00;;;;;;;2.08;1.15;;;;;;;11.49;57.36;100283.88;10456806;28;20048;-58
2023/06/01 03:18:03;;;;;;;2.55;1.63;;;;;;;11.48;57.10;100287.41;10462882;28;20496;-59
2023/06/01 03:23:05;;;;;;;2.45;1.15;;;;;;;11.38;57.43;100288.88;10445042;28;20106;-58
2023/06/01 03:28:07;;;;;;;2.50;1.40;;;;;;;11.50;57.50;100287.34;10464687;28;20072;-58
2023/06/01 03:33:10;;;;;;;3.53;1.42;;;;;;;11.52;57.48;100285.47;10459386;28;20052;-59
2023/06/01 03:38:12;;;;;;;2.28;1.30;;;;;;;11.62;57.18;100291.88;10454219;28;20472;-59
2023/06/01 03:43:14;;;;;;;3.25;1.60;;;;;;;11.62;56.96;100292.69;10455282;28;20056;-58
2023/06/01 03:48:16;;;;;;;2.75;1.50;;;;;;;11.68;57.15;100292.31;10463092;28;20543;-59
2023/06/01 03:53:19;;;;;;;3.45;1.40;;;;;;;11.69;57.07;100286.16;10460059;28;20047;-59
2023/06/01 03:58:20;;;;;;;3.40;1.30;;;;;;;11.74;57.04;100289.38;10458470;28;20072;-59
2023/06/01 04:03:23;;;;;;;3.33;1.45;;;;;;;11.81;56.79;100282.81;10527516;28;20047;-59
2023/06/01 04:08:29;;;;;;;2.53;1.35;;;;;;;11.92;57.00;100280.41;10530297;28;20104;-58
2023/06/01 04:13:31;;;;;;;2.63;1.35;;;;;;;13.06;56.26;100284.66;10521632;27;20039;-59
2023/06/01 04:18:35;;;;;;;3.05;1.50;;;;;;;16.14;51.10;100265.25;10526813;28;20971;-59
2023/06/01 04:23:37;;;;;;;2.25;1.40;;;;;;;18.69;46.29;100257.09;10523985;27;20047;-59
2023/06/01 04:28:43;;;;;;;2.97;1.17;;;;;;;20.50;42.77;100250.84;10562872;27;20047;-59
2023/06/01 04:33:52;;;;;;;1.38;1.17;;;;;;;22.03;40.70;100247.09;10507964;28;20056;-59
2023/06/01 04:38:57;;;;;;;2.28;1.30;;;;;;;23.45;38.75;100245.31;10525435;28;20047;-59
2023/06/01 04:43:59;;;;;;;2.25;1.30;;;;;;;24.59;36.76;100249.44;10528085;27;20522;-60
2023/06/01 04:49:02;;;;;;;1.70;1.20;;;;;;;24.99;35.80;100243.91;10515025;27;20380;-59
2023/06/01 04:54:04;;;;;;;2.03;1.30;;;;;;;25.55;34.70;100242.72;10513125;27;20039;-59
2023/06/01 04:59:06;;;;;;;2.25;1.20;;;;;;;26.34;33.15;100242.09;10525402;28;20606;-59
2023/06/01 05:04:08;;;;;;;2.97;1.50;;;;;;;26.65;32.68;100240.91;10533876;28;20403;-59
2023/06/01 05:09:11;;;;;;;1.92;1.30;;;;;;;27.17;31.72;100246.06;10519043;28;20048;-60
2023/06/01 05:14:13;;;;;;;1.73;1.23;;;;;;;28.00;30.62;100242.69;10515488;27;20046;-59
2023/06/01 05:19:15;;;;;;;1.52;1.23;;;;;;;28.44;30.03;100240.50;10537871;28;20645;-60
2023/06/01 05:24:18;;;;;;;2.40;1.30;;;;;;;27.91;29.13;100235.81;10521049;28;20047;-59
2023/06/01 05:29:21;;;;;;;1.83;1.20;;;;;;;24.89;32.25;100238.78;10516575;28;20128;-59
2023/06/01 05:34:23;;;;;;;2.42;1.27;;;;;;;22.11;35.52;100248.97;10543461;28;20134;-59
2023/06/01 05:39:28;;;;;;;2.10;1.20;;;;;;;20.25;37.87;100249.69;10517848;28;20054;-59
2023/06/01 05:44:31;;;;;;;2.58;1.45;;;;;;;18.97;40.37;100248.38;10488939;28;20044;-59
2023/06/01 05:49:35;;;;;;;2.53;1.30;;;;;;;18.46;42.27;100253.81;10538176;28;20058;-59
2023/06/01 05:54:37;;;;;;;2.10;1.35;;;;;;;18.10;42.08;100249.03;10559463;27;20177;-59
2023/06/01 05:59:42;;;;;;;2.42;1.30;;;;;;;18.02;42.61;100259.44;10524844;27;20750;-59
2023/06/01 06:04:45;;;;;;;1.80;1.17;;;;;;;17.88;42.92;100251.00;10517620;27;20176;-59
2023/06/01 06:09:47;;;;;;;4.10;1.50;;;;;;;17.81;43.33;100248.88;10550752;27;20051;-60
2023/06/01 06:14:49;;;;;;;2.70;1.50;;;;;;;18.07;43.36;100251.13;10534267;27;20445;-61
2023/06/01 06:19:51;;;;;;;2.00;1.30;;;;;;;18.19;43.69;100260.66;10555437;27;20577;-61
2023/06/01 06:24:53;;;;;;;1.90;1.30;;;;;;;18.38;43.30;100264.25;10550465;27;20268;-60
2023/06/01 06:29:55;;;;;;;2.17;1.20;;;;;;;18.62;43.80;100263.94;10553305;28;20054;-60
2023/06/01 06:34:57;;;;;;;2.40;1.30;;;;;;;18.91;43.22;100261.38;10549964;27;20040;-62
2023/06/01 06:39:59;;;;;;;1.73;1.13;;;;;;;19.22;43.15;100269.09;10553734;28;20051;-61
2023/06/01 06:45:01;;;;;;;2.92;1.40;;;;;;;19.46;42.75;100258.06;10546605;27;20757;-59
2023/06/01 06:50:04;;;;;;;1.98;1.33;;;;;;;19.69;42.19;100256.81;10550851;28;20051;-61
2023/06/01 06:55:06;;;;;;;2.65;1.33;;;;;;;20.04;42.01;100256.22;10550841;27;20035;-61
2023/06/01 07:00:14;;;;;;;2.55;1.35;;;;;;;20.45;41.23;100252.28;10533315;28;20052;-61
2023/06/01 07:05:16;;;;;;;2.10;1.38;;;;;;;20.63;41.01;100262.03;10549430;28;20210;-60
2023/06/01 07:10:18;;;;;;;3.40;1.20;;;;;;;20.75;40.97;100263.50;10535258;27;20055;-61
2023/06/01 07:15:21;;;;;;;1.95;1.38;;;;;;;21.90;39.56;100250.13;10546746;27;20043;-61
2023/06/01 07:20:23;;;;;;;1.95;1.20;;;;;;;22.99;38.16;100245.84;10549053;28;20065;-61
2023/06/01 07:25:26;;;;;;;3.47;1.40;;;;;;;24.36;37.12;100238.66;10546392;28;20047;-61
2023/06/01 07:30:27;;;;;;;2.13;1.30;;;;;;;25.55;35.87;100232.00;10550462;28;20082;-61
2023/06/01 07:35:30;;;;;;;2.05;1.20;;;;;;;26.66;34.01;100225.63;10548781;28;20043;-62
2023/06/01 07:40:32;;;;;;;2.60;1.38;;;;;;;27.91;32.64;100217.78;10551350;28;20062;-62
2023/06/01 07:45:33;;;;;;;2.15;1.20;;;;;;;28.08;31.35;100216.47;10548371;28;20043;-62
2023/06/01 07:50:36;;;;;;;2.58;1.30;;;;;;;28.46;30.65;100214.22;10550329;28;20552;-62
2023/06/01 07:55:38;;;;;;;2.63;1.13;;;;;;;28.73;29.79;100210.59;10546886;28;20047;-62
2023/06/01 08:00:40;;;;;;;1.80;1.17;;;;;;;28.32;30.70;100207.09;10547697;28;20075;-62
2023/06/01 08:05:42;;;;;;;2.15;1.02;;;;;;;29.15;29.82;100200.59;10547734;28;20043;-62
2023/06/01 08:10:44;;;;;;;2.38;1.30;;;;;;;28.93;29.32;100194.56;10531773;28;20098;-62
2023/06/01 08:15:50;;;;;;;3.83;1.35;;;;;;;29.26;29.14;100181.94;10545814;28;20051;-62
2023/06/01 08:20:52;;;;;;;5.70;1.30;;;;;;;29.64;28.43;100188.41;10548815;28;20123;-62
2023/06/01 08:25:54;;;;;;;1.75;1.17;;;;;;;29.07;28.69;100186.28;10544331;27;20402;-61
2023/06/01 08:30:56;;;;;;;1.60;1.10;;;;;;;28.87;28.73;100180.03;10532877;28;20548;-62
2023/06/01 08:35:58;;;;;;;2.72;1.33;;;;;;;28.94;28.76;100178.19;10545272;28;20055;-60
2023/06/01 08:41:08;;;;;;;2.40;1.40;;;;;;;29.18;27.98;100171.38;10549844;28;20044;-61
2023/06/01 08:46:11;;;;;;;1.95;1.20;;;;;;;28.57;28.96;100180.53;10547263;28;20046;-61
2023/06/01 08:51:13;;;;;;;4.35;1.30;;;;;;;28.44;29.14;100169.72;10549909;28;20400;-61
2023/06/01 08:56:16;;;;;;;5.38;1.60;;;;;;;29.03;29.03;100158.09;10544798;28;20035;-61
2023/06/01 09:01:21;;;;;;;3.35;1.50;;;;;;;29.41;28.51;100157.53;10541545;28;20052;-61
2023/06/01 09:06:23;;;;;;;2.15;1.20;;;;;;;29.09;28.42;100145.69;10545492;28;20427;-61
2023/06/01 09:11:26;;;;;;;2.38;1.27;;;;;;;29.03;28.82;100141.13;10549524;28;20043;-61
2023/06/01 09:16:38;;;;;;;2.53;1.17;;;;;;;28.82;27.97;100141.25;10544951;28;20253;-60
2023/06/01 09:21:41;;;;;;;1.33;0.90;;;;;;;29.27;28.04;100135.13;10531268;28;20149;-61
2023/06/01 09:26:48;;;;;;;1.50;1.10;;;;;;;29.15;27.29;100125.19;10538201;28;20836;-62
2023/06/01 09:31:52;;;;;;;;;;;;;;;28.88;27.08;100113.56;10547851;28;20051;-61
2023/06/01 09:36:56;;;;;;;1.95;1.30;;;;;;;28.90;28.12;100117.69;10539990;28;19924;-60
2023/06/01 09:41:59;;;;;;;2.67;1.40;;;;;;;29.17;27.76;100117.72;10546233;28;20139;-60
2023/06/01 09:47:11;;;;;;;1.80;1.15;;;;;;;29.00;27.33;100110.03;10536871;28;20142;-60
2023/06/01 09:52:16;;;;;;;3.28;1.40;;;;;;;28.82;28.15;100111.66;10542665;28;20047;-61
2023/06/01 09:57:29;;;;;;;4.03;1.50;;;;;;;28.44;27.64;100105.97;10545575;28;20051;-60
2023/06/01 10:02:33;;;;;;;2.40;1.20;;;;;;;28.76;28.19;100096.31;10539730;28;20043;-60
2023/06/01 10:07:38;;;;;;;1.52;1.17;;;;;;;29.26;28.28;100081.44;10528264;28;20039;-61
2023/06/01 10:12:40;;;;;;;3.95;1.60;;;;;;;28.22;28.10;100094.50;10543609;28;20067;-61
2023/06/01 10:17:43;;;;;;;1.63;1.10;;;;;;;28.16;28.79;100089.06;10546406;28;20843;-61
2023/06/01 10:22:46;;;;;;;1.77;1.20;;;;;;;28.46;27.73;100085.06;10545792;28;20432;-61
2023/06/01 10:27:57;;;;;;;2.92;1.10;;;;;;;28.10;27.83;100081.81;10547026;28;20075;-61
2023/06/01 10:32:59;;;;;;;3.22;1.40;;;;;;;28.18;28.47;100068.19;10546097;28;20685;-61
2023/06/01 10:38:12;;;;;;;2.97;1.38;;;;;;;28.18;27.39;100065.50;10549527;28;20075;-61
2023/06/01 10:43:36;;;;;;;1.88;1.08;;;;;;;27.80;28.17;100062.47;10553041;28;20048;-61
2023/06/01 10:48:55;;;;;;;1.90;1.10;;;;;;;27.78;27.94;100064.53;10528734;28;20433;-61
2023/06/01 10:54:28;;;;;;;1.88;1.20;;;;;;;27.36;27.72;100062.78;10549832;28;20058;-61
2023/06/01 10:59:31;;;;;;;2.35;1.20;;;;;;;27.20;28.35;100057.72;10521586;28;20055;-61
2023/06/01 11:04:36;;;;;;;2.45;1.27;;;;;;;27.22;28.04;100058.34;10547441;28;20097;-61
2023/06/01 11:09:46;;;;;;;2.80;1.27;;;;;;;26.98;28.43;100053.38;10547625;27;20063;-61
2023/06/01 11:15:11;;;;;;;1.50;1.10;;;;;;;27.11;28.98;100055.34;10549286;28;20104;-61
2023/06/01 11:20:14;;;;;;;1.73;1.20;;;;;;;26.95;28.44;100048.41;10551608;28;20048;-61
2023/06/01 11:25:17;;;;;;;1.50;1.15;;;;;;;26.75;28.66;100055.44;10543270;27;20070;-61
2023/06/01 11:30:21;;;;;;;2.33;1.10;;;;;;;26.54;28.81;100047.38;10548532;28;20104;-61
2023/06/01 11:35:26;;;;;;;3.47;1.02;;;;;;;26.62;28.84;100049.97;10543121;27;20443;-62
2023/06/01 11:40:29;;;;;;;4.05;1.23;;;;;;;26.81;28.72;100038.59;10516235;28;20054;-62
2023/06/01 11:45:40;;;;;;;1.38;1.08;;;;;;;26.42;29.48;100038.19;10546433;27;20051;-62
2023/06/01 11:50:46;;;;;;;2.15;1.30;;;;;;;26.71;28.62;100040.75;10549068;28;20535;-61
2023/06/01 11:55:52;;;;;;;1.60;1.10;;;;;;;26.55;29.11;100020.38;10546391;28;20059;-62
2023/06/01 12:00:59;;;;;;;2.25;1.10;;;;;;;26.72;29.64;100030.84;10549309;27;20044;-62
2023/06/01 12:06:02;;;;;;;1.98;1.08;;;;;;;26.56;29.19;100015.84;10544258;28;20048;-62
2023/06/01 12:11:07;;;;;;;1.48;1.20;;;;;;;26.42;29.44;100022.09;10549119;27;20050;-61
2023/06/01 12:16:10;;;;;;;1.98;1.15;;;;;;;26.24;30.01;100010.97;10550921;27;20054;-62
2023/06/01 12:21:23;;;;;;;1.98;1.20;;;;;;;26.50;30.19;100008.53;10550803;28;20052;-62
2023/06/01 12:26:35;;;;;;;2.33;1.38;;;;;;;26.67;30.68;100004.59;10545731;28;20044;-62
2023/06/01 12:31:37;;;;;;;3.05;1.33;;;;;;;26.51;30.52;100002.16;10551510;27;20055;-62
2023/06/01 12:36:39;;;;;;;2.45;1.40;;;;;;;26.61;30.28;99998.16;10544350;27;20051;-61
2023/06/01 12:41:51;;;;;;;3.08;1.30;;;;;;;26.95;30.35;99996.56;10546096;27;20047;-61
2023/06/01 12:47:03;;;;;;;3.60;1.40;;;;;;;27.02;30.16;99987.53;10524353;27;20044;-62
2023/06/01 12:52:06;;;;;;;3.72;1.55;;;;;;;27.15;30.71;99997.56;10546831;27;20058;-62
2023/06/01 12:57:13;;;;;;;2.50;1.40;;;;;;;26.96;31.39;99984.78;10545608;27;20140;-61
2023/06/01 13:02:15;;;;;;;3.63;2.00;;;;;;;26.83;31.22;99984.72;10542200;28;20063;-61
2023/06/01 13:07:17;;;;;;;3.88;2.42;;;;;;;26.91;31.24;99985.41;10545122;28;20046;-61
2023/06/01 13:12:19;;;;;;;3.80;2.15;;;;;;;26.77;31.50;99989.00;10544325;27;20131;-61
2023/06/01 13:17:21;;;;;;;4.25;2.10;;;;;;;26.79;31.31;99981.59;10523818;28;21154;-61
2023/06/01 13:22:23;;;;;;;4.20;2.25;;;;;;;26.66;31.53;99976.13;10545018;28;20406;-61
2023/06/01 13:27:25;;;;;;;4.47;2.47;;;;;;;26.46;31.47;99980.44;10548056;28;20407;-61
2023/06/01 13:32:27;;;;;;;4.03;2.20;;;;;;;26.63;31.39;99973.81;10526704;28;20059;-61
2023/06/01 13:37:29;;;;;;;4.57;2.67;;;;;;;26.74;31.38;99967.09;10546502;28;20139;-61
2023/06/01 13:42:35;;;;;;;4.63;2.67;;;;;;;26.79;31.66;99965.50;10544588;28;20511;-61
2023/06/01 13:47:37;;;;;;;3.92;2.53;;;;;;;26.75;31.53;99971.44;10513388;28;20055;-61
2023/06/01 13:52:40;;;;;;;3.63;2.33;;;;;;;26.92;31.33;99962.06;10542303;28;20052;-62
2023/06/01 13:57:42;;;;;;;6.32;2.50;;;;;;;26.72;31.26;99956.56;10546464;28;20040;-61
2023/06/01 14:02:44;;;;;;;4.15;2.30;;;;;;;26.86;30.74;99952.94;10544769;28;20611;-61
2023/06/01 14:07:46;;;;;;;3.95;2.30;;;;;;;26.87;30.52;99951.09;10544490;28;20047;-61
2023/06/01 14:12:48;;;;;;;4.20;2.10;;;;;;;26.78;30.33;99952.25;10543254;28;20058;-61
2023/06/01 14:17:50;;;;;;;3.65;2.20;;;;;;;26.78;30.13;99942.34;10551712;28;20051;-61
2023/06/01 14:22:52;;;;;;;4.15;2.50;;;;;;;26.86;29.82;99934.16;10547793;28;20384;-61
2023/06/01 14:27:54;;;;;;;3.45;2.00;;;;;;;26.78;29.28;99928.94;10553942;27;20051;-61
2023/06/01 14:32:56;;;;;;;4.07;2.20;;;;;;;26.73;28.85;99931.38;10527566;27;20717;-61
2023/06/01 14:37:58;;;;;;;4.72;2.50;;;;;;;26.85;27.66;99927.16;10553485;27;20051;-62
2023/06/01 14:43:00;;;;;;;4.05;2.35;;;;;;;26.93;27.83;99924.31;10552098;27;20058;-62
2023/06/01 14:48:02;;;;;;;4.65;2.50;;;;;;;26.81;27.30;99909.78;10551107;27;20218;-62
2023/06/01 14:53:04;;;;;;;6.05;2.30;;;;;;;26.82;26.88;99911.41;10547443;27;20039;-62
2023/06/01 14:58:07;;;;;;;4.22;2.33;;;;;;;26.80;25.34;99909.94;10550148;27;20039;-62
2023/06/01 15:03:08;;;;;;;4.70;2.70;;;;;;;27.00;25.76;99897.47;10546478;27;20062;-61
2023/06/01 15:08:11;;;;;;;4.15;2.05;;;;;;;26.84;25.48;99909.38;10544748;27;20160;-62
2023/06/01 15:13:13;;;;;;;4.38;2.50;;;;;;;27.02;25.27;99904.31;10546267;27;20143;-62
2023/06/01 15:18:15;;;;;;;4.07;2.42;;;;;;;26.46;25.08;99911.56;10545375;27;20166;-62
2023/06/01 15:23:20;;;;;;;5.35;2.80;;;;;;;26.38;24.75;99908.19;10521865;27;20036;-62
2023/06/01 15:28:22;;;;;;;5.75;3.05;;;;;;;26.32;25.07;99903.59;10547332;28;20043;-61
2023/06/01 15:33:27;;;;;;;8.05;3.72;;;;;;;26.12;25.29;99902.59;10545545;27;20066;-61
2023/06/01 15:38:31;;;;;;;6.47;3.55;;;;;;;25.99;25.71;99913.16;10520867;28;20789;-61
2023/06/01 15:43:36;;;;;;;5.85;3.72;;;;;;;25.98;25.61;99906.97;10513983;28;20411;-61
2023/06/01 15:48:39;;;;;;;6.75;3.65;;;;;;;26.01;25.97;99909.28;10550342;28;20043;-61
2023/06/01 15:53:41;;;;;;;8.15;4.22;;;;;;;26.19;25.92;99904.28;10548557;27;20062;-61
2023/06/01 15:58:43;;;;;;;7.55;4.05;;;;;;;26.13;25.82;99896.19;10532273;28;20043;-62
2023/06/01 16:03:45;;;;;;;7.03;4.00;;;;;;;25.96;25.79;99898.28;10546200;27;20052;-61
2023/06/01 16:08:47;;;;;;;5.50;3.20;;;;;;;26.02;25.63;99875.28;10502950;27;20228;-61
2023/06/01 16:13:49;;;;;;;6.55;3.67;;;;;;;25.57;25.98;99877.22;10541570;27;20043;-62
2023/06/01 16:18:51;;;;;;;7.70;3.33;;;;;;;25.57;25.97;99877.22;10550616;28;20044;-62
2023/06/01 16:23:53;;;;;;;6.05;3.50;;;;;;;25.57;25.81;99861.16;10547208;28;20460;-62
2023/06/01 16:28:55;;;;;;;5.60;3.28;;;;;;;25.61;25.96;99864.31;10549629;28;20054;-61
2023/06/01 16:33:57;;;;;;;6.55;3.50;;;;;;;25.60;25.83;99857.28;10545984;28;20052;-61
2023/06/01 16:39:00;;;;;;;6.50;3.38;;;;;;;25.59;25.66;99875.19;10546149;28;20055;-61
2023/06/01 16:44:02;;;;;;;4.68;2.75;;;;;;;25.69;25.23;99864.19;10545122;27;20491;-61
2023/06/01 16:49:05;;;;;;;5.30;2.88;;;;;;;25.83;25.31;99869.47;10512681;28;20046;-61
2023/06/01 16:54:07;;;;;;;5.03;2.92;;;;;;;25.96;25.15;99866.13;10543431;28;20929;-61
2023/06/01 16:59:11;;;;;;;5.63;2.67;;;;;;;25.98;24.69;99863.28;10540028;28;20039;-61
2023/06/01 17:04:15;;;;;;;4.63;2.63;;;;;;;25.92;24.79;99865.66;10541732;27;20047;-61
2023/06/01 17:09:17;;;;;;;4.38;2.35;;;;;;;25.79;25.00;99868.19;10545299;27;20608;-61
2023/06/01 17:14:20;;;;;;;6.40;2.30;;;;;;;25.65;25.16;99868.28;10519594;28;20051;-61
2023/06/01 17:19:22;;;;;;;5.93;2.65;;;;;;;25.14;25.58;99867.44;10539317;28;20047;-61
2023/06/01 17:24:24;;;;;;;4.70;2.50;;;;;;;24.70;26.05;99877.25;10541808;28;20150;-61
2023/06/01 17:29:26;;;;;;;4.00;2.30;;;;;;;24.32;26.18;99878.31;10544167;28;20134;-61
2023/06/01 17:34:29;;;;;;;4.47;2.30;;;;;;;24.07;26.45;99875.84;10541791;28;20721;-62
2023/06/01 17:39:31;;;;;;;4.50;2.30;;;;;;;23.93;27.07;99873.94;10546899;28;20415;-62
2023/06/01 17:44:33;;;;;;;5.05;2.38;;;;;;;23.69;27.07;99887.44;10525861;28;20192;-61
2023/06/01 17:49:35;;;;;;;3.40;1.98;;;;;;;23.24;27.92;99892.66;10534378;28;20070;-61
2023/06/01 17:54:37;;;;;;;3.78;2.30;;;;;;;22.93;28.19;99894.44;10552158;27;20095;-61
2023/06/01 17:59:42;;;;;;;3.90;2.00;;;;;;;22.63;28.85;99893.31;10553831;27;20055;-61
2023/06/01 18:04:44;;;;;;;7.43;2.45;;;;;;;22.47;29.14;99904.00;10553188;28;20126;-61
2023/06/01 18:09:49;;;;;;;4.22;2.40;;;;;;;22.27;29.59;99903.50;10548584;27;20388;-61
2023/06/01 18:14:51;;;;;;;4.28;2.25;;;;;;;22.10;29.78;99917.00;10550296;28;20535;-61
2023/06/01 18:19:53;;;;;;;4.82;2.35;;;;;;;21.94;30.35;99916.94;10528972;27;20046;-61
2023/06/01 18:24:55;;;;;;;4.15;2.00;;;;;;;21.81;30.91;99925.41;10550470;28;20052;-60
2023/06/01 18:29:57;;;;;;;4.00;2.28;;;;;;;21.62;31.00;99918.53;10554582;28;20054;-61
2023/06/01 18:34:59;;;;;;;6.18;2.20;;;;;;;21.55;31.32;99922.84;10533113;28;20108;-61
2023/06/01 18:40:01;;;;;;;3.42;2.20;;;;;;;21.37;31.91;99921.28;10527567;28;20442;-61
2023/06/01 18:45:03;;;;;;;3.75;2.28;;;;;;;21.14;31.53;99922.81;10550071;28;20070;-61
2023/06/01 18:50:06;;;;;;;4.15;2.30;;;;;;;21.17;31.72;99928.63;10533797;28;20565;-61
2023/06/01 18:55:13;;;;;;;4.05;2.50;;;;;;;21.06;32.26;99929.78;10547798;27;20059;-61
2023/06/01 19:00:16;;;;;;;4.28;2.10;;;;;;;20.78;33.28;99932.75;10550347;28;20048;-61
2023/06/01 19:05:22;;;;;;;4.35;2.22;;;;;;;20.60;33.14;99939.94;10530403;28;20066;-61
2023/06/01 19:10:36;;;;;;;3.55;2.22;;;;;;;20.50;33.69;99942.66;10553349;28;20051;-61
2023/06/01 19:15:38;;;;;;;4.35;2.08;;;;;;;20.40;33.52;99944.56;10524570;28;20458;-61
2023/06/01 19:20:40;;;;;;;4.53;2.50;;;;;;;20.16;34.02;99950.50;10530716;28;20143;-61
2023/06/01 19:25:42;;;;;;;4.60;2.30;;;;;;;20.00;34.28;99957.47;10550162;28;20047;-59
2023/06/01 19:30:48;;;;;;;4.88;2.72;;;;;;;19.83;35.11;99961.78;10551836;28;20046;-59
2023/06/01 19:35:49;;;;;;;4.18;2.20;;;;;;;19.69;34.95;99970.22;10550067;27;20048;-60
2023/06/01 19:40:51;;;;;;;4.57;2.58;;;;;;;19.53;35.44;99979.78;10550937;27;20032;-60
2023/06/01 19:45:53;;;;;;;4.40;2.60;;;;;;;19.33;35.77;99973.75;10553425;27;20057;-59
2023/06/01 19:50:55;;;;;;;4.38;2.40;;;;;;;18.95;36.38;99987.13;10551923;27;20404;-60
2023/06/01 19:55:59;;;;;;;4.47;2.55;;;;;;;18.74;37.22;99987.31;10553376;27;20051;-60
2023/06/01 20:01:01;;;;;;;4.45;2.45;;;;;;;18.67;37.91;100004.72;10548467;27;20043;-60
2023/06/01 20:06:08;;;;;;;5.03;2.63;;;;;;;18.32;38.41;100017.72;10553087;28;20035;-60
2023/06/01 20:11:10;;;;;;;5.47;2.53;;;;;;;18.12;38.27;100016.81;10551763;28;20145;-60
2023/06/01 20:16:15;;;;;;;4.13;2.70;;;;;;;18.10;38.70;100017.91;10548167;28;20987;-60
2023/06/01 20:21:19;;;;;;;7.75;2.55;;;;;;;17.78;39.02;100032.22;10546205;27;20520;-60
2023/06/01 20:26:23;;;;;;;4.45;2.50;;;;;;;17.57;39.82;100030.59;10546728;28;20051;-60
2023/06/01 20:31:29;;;;;;;5.10;2.63;;;;;;;17.43;40.91;100029.16;10531701;27;21281;-60
2023/06/01 20:36:32;;;;;;;6.13;2.85;;;;;;;17.28;41.02;100033.06;10550519;27;20039;-60
2023/06/01 20:41:35;;;;;;;4.32;2.50;;;;;;;17.17;41.04;100021.75;10523728;28;20044;-60
2023/06/01 20:46:37;;;;;;;4.35;2.60;;;;;;;17.13;41.48;100023.81;10525553;28;20058;-60
2023/06/01 20:51:44;;;;;;;5.43;2.85;;;;;;;16.97;43.12;100028.75;10532164;28;20048;-60
2023/06/01 20:56:49;;;;;;;4.70;2.53;;;;;;;16.78;42.34;100042.66;10549758;28;20369;-60
2023/06/01 21:01:55;;;;;;;6.22;2.45;;;;;;;16.68;43.16;100046.19;10548999;28;20047;-60
2023/06/01 21:06:57;;;;;;;4.28;2.20;;;;;;;16.62;42.52;100051.97;10549221;28;20270;-60
2023/06/01 21:12:01;;;;;;;4.93;2.38;;;;;;;16.51;42.80;100055.50;10524182;27;20461;-59
2023/06/01 21:17:04;;;;;;;4.63;2.38;;;;;;;16.36;43.01;100055.88;10532119;28;20032;-60
2023/06/01 21:22:06;;;;;;;4.45;2.38;;;;;;;16.32;43.10;100059.75;10547490;28;20130;-60
2023/06/01 21:27:08;;;;;;;5.20;2.30;;;;;;;16.08;43.48;100060.75;10549680;28;20139;-60
2023/06/01 21:32:11;;;;;;;5.85;2.28;;;;;;;16.03;43.58;100064.72;10547127;28;20139;-60
2023/06/01 21:37:13;;;;;;;4.18;2.15;;;;;;;16.08;43.54;100065.22;10548722;28;20071;-59
2023/06/01 21:42:15;;;;;;;4.30;2.10;;;;;;;15.91;43.89;100069.19;10551138;28;20047;-60
2023/06/01 21:47:17;;;;;;;4.53;2.10;;;;;;;15.72;43.99;100074.22;10551781;28;20044;-59
2023/06/01 21:52:19;;;;;;;4.55;2.22;;;;;;;15.46;44.54;100075.41;10551653;28;20100;-59
2023/06/01 21:57:21;;;;;;;4.22;2.15;;;;;;;15.30;44.83;100083.66;10548540;28;20605;-60
2023/06/01 22:02:23;;;;;;;3.20;2.05;;;;;;;15.23;45.15;100078.94;10547110;28;20056;-60
2023/06/01 22:07:27;;;;;;;3.47;2.13;;;;;;;15.18;45.54;100089.88;10547535;28;20040;-59
2023/06/01 22:12:33;;;;;;;4.88;2.30;;;;;;;15.19;45.74;100093.31;10548455;28;20128;-60
2023/06/01 22:17:37;;;;;;;9.48;2.22;;;;;;;15.13;45.87;100094.63;10548639;28;20411;-59
2023/06/01 22:22:39;;;;;;;4.78;2.08;;;;;;;14.91;46.16;100114.78;10547750;28;20047;-60
2023/06/01 22:27:41;;;;;;;4.20;2.00;;;;;;;14.66;46.59;100110.50;10550338;28;20072;-59
2023/06/01 22:32:43;;;;;;;6.07;2.17;;;;;;;14.50;46.93;100107.31;10540112;28;20816;-60
2023/06/01 22:37:45;;;;;;;3.47;1.95;;;;;;;14.36;47.03;100103.03;10554649;27;20043;-60
2023/06/01 22:42:47;;;;;;;3.80;2.03;;;;;;;14.31;47.14;100117.44;10553226;27;20205;-61
2023/06/01 22:47:50;;;;;;;5.25;2.15;;;;;;;14.18;47.73;100120.16;10551885;28;20046;-60
2023/06/01 22:52:53;;;;;;;4.25;2.20;;;;;;;14.20;47.84;100118.25;10551794;28;20047;-60
2023/06/01 22:57:55;;;;;;;4.50;2.03;;;;;;;14.05;48.05;100119.31;10535904;27;20043;-59
2023/06/01 23:02:57;;;;;;;4.10;2.03;;;;;;;14.08;48.16;100115.66;10552606;27;20086;-60
2023/06/01 23:08:00;;;;;;;4.13;2.22;;;;;;;13.88;48.53;100127.56;10553495;27;20047;-61
2023/06/01 23:13:04;;;;;;;5.80;2.13;;;;;;;13.77;48.74;100116.97;10553230;27;20059;-61
2023/06/01 23:18:07;;;;;;;6.10;2.22;;;;;;;13.70;49.05;100127.06;10552066;27;20834;-60